sensor_id;sensor_type;location;lat;lon;timestamp;pressure;altitude;pressure_sealevel;temperature;humidity
5053;BME280;2545;50.892;5.740;2022-12-20T00:00:59;56370.94;;;-142.21;66.16
5053;BME280;2545;50.892;5.740;2022-12-20T00:03:24;56312.09;;;-142.21;65.93
5053;BME280;2545;50.892;5.740;2022-12-20T00:05:50;56329.75;;;-142.21;66.43
5053;BME280;2545;50.892;5.740;2022-12-20T00:08:15;56321.91;;;-142.21;65.48
5053;BME280;2545;50.892;5.740;2022-12-20T00:10:42;56288.56;;;-142.21;65.67
5053;BME280;2545;50.892;5.740;2022-12-20T00:13:09;56314.06;;;-142.21;65.29
5053;BME280;2545;50.892;5.740;2022-12-20T00:15:34;56335.63;;;-142.21;65.44
5053;BME280;2545;50.892;5.740;2022-12-20T00:18:00;56347.41;;;-142.21;65.39
5053;BME280;2545;50.892;5.740;2022-12-20T00:20:26;56294.47;;;-142.21;65.62
5053;BME280;2545;50.892;5.740;2022-12-20T00:22:51;56286.63;;;-142.21;65.25
5053;BME280;2545;50.892;5.740;2022-12-20T00:25:17;56327.78;;;-142.21;65.50
5053;BME280;2545;50.892;5.740;2022-12-20T00:27:44;56325.84;;;-142.21;65.56
5053;BME280;2545;50.892;5.740;2022-12-20T00:30:10;56325.84;;;-142.21;65.33
5053;BME280;2545;50.892;5.740;2022-12-20T00:32:35;56325.84;;;-142.21;65.00
5053;BME280;2545;50.892;5.740;2022-12-20T00:35:00;56347.41;;;-142.21;65.04
5053;BME280;2545;50.892;5.740;2022-12-20T00:37:26;56359.16;;;-142.21;64.77
5053;BME280;2545;50.892;5.740;2022-12-20T00:39:51;56345.44;;;-142.21;64.56
5053;BME280;2545;50.892;5.740;2022-12-20T00:42:16;56333.69;;;-142.21;64.91
5053;BME280;2545;50.892;5.740;2022-12-20T00:44:42;56341.53;;;-142.21;64.79
5053;BME280;2545;50.892;5.740;2022-12-20T00:47:07;56333.69;;;-142.21;64.61
5053;BME280;2545;50.892;5.740;2022-12-20T00:49:32;56329.75;;;-142.21;64.55
5053;BME280;2545;50.892;5.740;2022-12-20T00:51:57;56316.03;;;-142.21;65.65
5053;BME280;2545;50.892;5.740;2022-12-20T00:54:23;56321.91;;;-142.21;66.06
5053;BME280;2545;50.892;5.740;2022-12-20T00:56:48;56357.22;;;-142.21;66.09
5053;BME280;2545;50.892;5.740;2022-12-20T00:59:14;56316.03;;;-142.21;66.86
5053;BME280;2545;50.892;5.740;2022-12-20T01:01:39;56292.50;;;-142.21;67.90
5053;BME280;2545;50.892;5.740;2022-12-20T01:04:04;56312.09;;;-142.21;69.60
5053;BME280;2545;50.892;5.740;2022-12-20T01:06:30;56335.63;;;-142.21;69.92
5053;BME280;2545;50.892;5.740;2022-12-20T01:08:56;56339.56;;;-142.21;70.23
5053;BME280;2545;50.892;5.740;2022-12-20T01:11:30;56333.69;;;-142.21;69.84
5053;BME280;2545;50.892;5.740;2022-12-20T01:13:59;56308.19;;;-142.21;70.51
5053;BME280;2545;50.892;5.740;2022-12-20T01:16:30;56349.38;;;-142.21;69.45
5053;BME280;2545;50.892;5.740;2022-12-20T01:18:56;56325.84;;;-142.21;68.94
5053;BME280;2545;50.892;5.740;2022-12-20T01:21:24;56314.06;;;-142.21;69.42
5053;BME280;2545;50.892;5.740;2022-12-20T01:23:50;56276.81;;;-142.21;69.36
5053;BME280;2545;50.892;5.740;2022-12-20T01:26:18;56288.56;;;-142.21;68.83
5053;BME280;2545;50.892;5.740;2022-12-20T01:28:46;56270.91;;;-142.21;68.32
5053;BME280;2545;50.892;5.740;2022-12-20T01:31:16;56312.09;;;-142.21;68.74
5053;BME280;2545;50.892;5.740;2022-12-20T01:33:42;56341.53;;;-142.21;69.29
5053;BME280;2545;50.892;5.740;2022-12-20T01:36:13;56308.19;;;-142.21;68.55
5053;BME280;2545;50.892;5.740;2022-12-20T01:38:39;56300.34;;;-142.21;68.13
5053;BME280;2545;50.892;5.740;2022-12-20T01:41:05;56343.47;;;-142.21;68.33
5053;BME280;2545;50.892;5.740;2022-12-20T01:44:04;56300.34;;;-142.21;68.26
5053;BME280;2545;50.892;5.740;2022-12-20T01:46:32;56325.84;;;-142.21;67.69
5053;BME280;2545;50.892;5.740;2022-12-20T01:49:05;56310.13;;;-142.21;67.81
5053;BME280;2545;50.892;5.740;2022-12-20T01:51:38;56347.41;;;-142.21;67.64
5053;BME280;2545;50.892;5.740;2022-12-20T01:54:16;56333.69;;;-142.21;67.82
5053;BME280;2545;50.892;5.740;2022-12-20T01:56:46;56304.25;;;-142.21;67.92
5053;BME280;2545;50.892;5.740;2022-12-20T01:59:13;56341.53;;;-142.21;67.83
5053;BME280;2545;50.892;5.740;2022-12-20T02:01:41;56290.53;;;-142.21;67.80
5053;BME280;2545;50.892;5.740;2022-12-20T02:04:06;56331.72;;;-142.21;68.50
5053;BME280;2545;50.892;5.740;2022-12-20T02:06:32;56314.06;;;-142.21;67.88
5053;BME280;2545;50.892;5.740;2022-12-20T02:08:58;56365.06;;;-142.21;68.72
5053;BME280;2545;50.892;5.740;2022-12-20T02:17:25;56294.47;;;-142.21;69.41
5053;BME280;2545;50.892;5.740;2022-12-20T02:25:45;56329.75;;;-142.21;76.60
5053;BME280;2545;50.892;5.740;2022-12-20T02:28:53;56361.13;;;-142.21;79.21
5053;BME280;2545;50.892;5.740;2022-12-20T02:31:26;56296.41;;;-142.21;80.62
5053;BME280;2545;50.892;5.740;2022-12-20T02:33:54;56317.97;;;-142.21;80.55
5053;BME280;2545;50.892;5.740;2022-12-20T02:36:21;56302.28;;;-142.21;81.60
5053;BME280;2545;50.892;5.740;2022-12-20T02:38:47;56304.25;;;-142.21;83.27
5053;BME280;2545;50.892;5.740;2022-12-20T02:41:25;56317.97;;;-142.21;81.76
5053;BME280;2545;50.892;5.740;2022-12-20T02:44:12;56306.22;;;-142.21;80.59
5053;BME280;2545;50.892;5.740;2022-12-20T02:46:59;56363.09;;;-142.21;79.52
5053;BME280;2545;50.892;5.740;2022-12-20T02:49:29;56319.94;;;-142.21;77.22
5053;BME280;2545;50.892;5.740;2022-12-20T02:51:58;56290.53;;;-142.21;83.37
5053;BME280;2545;50.892;5.740;2022-12-20T02:54:26;56341.53;;;-142.21;82.50
5053;BME280;2545;50.892;5.740;2022-12-20T02:57:00;56361.13;;;-142.21;84.59
5053;BME280;2545;50.892;5.740;2022-12-20T02:59:33;56335.63;;;-142.21;86.68
5053;BME280;2545;50.892;5.740;2022-12-20T03:02:02;56314.06;;;-142.21;90.54
5053;BME280;2545;50.892;5.740;2022-12-20T03:04:30;56304.25;;;-142.21;96.06
5053;BME280;2545;50.892;5.740;2022-12-20T03:07:04;56355.25;;;-142.21;98.87
5053;BME280;2545;50.892;5.740;2022-12-20T03:09:30;56345.44;;;-142.21;100.00
5053;BME280;2545;50.892;5.740;2022-12-20T03:11:57;56339.56;;;-142.21;100.00
5053;BME280;2545;50.892;5.740;2022-12-20T03:14:22;56357.22;;;-142.21;100.00
5053;BME280;2545;50.892;5.740;2022-12-20T03:16:48;56365.06;;;-142.21;100.00
5053;BME280;2545;50.892;5.740;2022-12-20T03:19:14;56370.94;;;-142.21;98.53
5053;BME280;2545;50.892;5.740;2022-12-20T03:21:39;56306.22;;;-142.21;97.52
5053;BME280;2545;50.892;5.740;2022-12-20T03:24:05;56368.97;;;-142.21;96.93
5053;BME280;2545;50.892;5.740;2022-12-20T03:26:30;56337.59;;;-142.21;95.63
5053;BME280;2545;50.892;5.740;2022-12-20T03:28:55;56374.84;;;-142.21;100.00
5053;BME280;2545;50.892;5.740;2022-12-20T03:31:21;56347.41;;;-142.21;100.00
5053;BME280;2545;50.892;5.740;2022-12-20T03:33:46;56341.53;;;-142.21;100.00
5053;BME280;2545;50.892;5.740;2022-12-20T03:36:12;56372.91;;;-142.21;100.00
5053;BME280;2545;50.892;5.740;2022-12-20T03:38:37;56349.38;;;-142.21;100.00
5053;BME280;2545;50.892;5.740;2022-12-20T03:41:02;56386.63;;;-142.21;100.00
5053;BME280;2545;50.892;5.740;2022-12-20T03:43:28;56386.63;;;-142.21;100.00
5053;BME280;2545;50.892;5.740;2022-12-20T03:45:53;56349.38;;;-142.21;100.00
5053;BME280;2545;50.892;5.740;2022-12-20T03:48:18;56325.84;;;-142.21;100.00
5053;BME280;2545;50.892;5.740;2022-12-20T03:50:44;56365.06;;;-142.21;100.00
5053;BME280;2545;50.892;5.740;2022-12-20T03:53:09;56361.13;;;-142.21;100.00
5053;BME280;2545;50.892;5.740;2022-12-20T03:55:34;56351.31;;;-142.21;100.00
5053;BME280;2545;50.892;5.740;2022-12-20T03:58:00;56359.16;;;-142.21;100.00
5053;BME280;2545;50.892;5.740;2022-12-20T04:00:25;56367.00;;;-142.21;100.00
5053;BME280;2545;50.892;5.740;2022-12-20T04:02:51;56353.28;;;-142.21;100.00
5053;BME280;2545;50.892;5.740;2022-12-20T04:05:16;56382.69;;;-142.21;100.00
5053;BME280;2545;50.892;5.740;2022-12-20T04:07:42;56351.31;;;-142.21;100.00
5053;BME280;2545;50.892;5.740;2022-12-20T04:10:07;56343.47;;;-142.21;100.00
5053;BME280;2545;50.892;5.740;2022-12-20T04:12:33;56363.09;;;-142.21;100.00
5053;BME280;2545;50.892;5.740;2022-12-20T04:14:58;56345.44;;;-142.21;100.00
5053;BME280;2545;50.892;5.740;2022-12-20T04:17:23;56345.44;;;-142.21;100.00
5053;BME280;2545;50.892;5.740;2022-12-20T04:19:49;56341.53;;;-142.21;100.00
5053;BME280;2545;50.892;5.740;2022-12-20T04:22:14;56380.75;;;-142.21;100.00
5053;BME280;2545;50.892;5.740;2022-12-20T04:24:39;56323.88;;;-142.21;100.00
5053;BME280;2545;50.892;5.740;2022-12-20T04:27:05;56355.25;;;-142.21;100.00
5053;BME280;2545;50.892;5.740;2022-12-20T04:29:30;56339.56;;;-142.21;100.00
5053;BME280;2545;50.892;5.740;2022-12-20T04:31:55;56367.00;;;-142.21;100.00
5053;BME280;2545;50.892;5.740;2022-12-20T04:34:21;56327.78;;;-142.21;100.00
5053;BME280;2545;50.892;5.740;2022-12-20T04:36:46;56359.16;;;-142.21;99.39
5053;BME280;2545;50.892;5.740;2022-12-20T04:39:12;56359.16;;;-142.21;98.76
5053;BME280;2545;50.892;5.740;2022-12-20T04:41:37;56376.81;;;-142.21;97.27
5053;BME280;2545;50.892;5.740;2022-12-20T04:44:02;56368.97;;;-142.21;95.93
5053;BME280;2545;50.892;5.740;2022-12-20T04:46:28;56327.78;;;-142.21;96.37
5053;BME280;2545;50.892;5.740;2022-12-20T04:48:53;56355.25;;;-142.21;94.69
5053;BME280;2545;50.892;5.740;2022-12-20T04:51:19;56317.97;;;-142.21;95.62
5053;BME280;2545;50.892;5.740;2022-12-20T04:53:44;56329.75;;;-142.21;95.12
5053;BME280;2545;50.892;5.740;2022-12-20T04:56:18;56347.41;;;-142.21;94.65
5053;BME280;2545;50.892;5.740;2022-12-20T04:58:45;56367.00;;;-142.21;95.36
5053;BME280;2545;50.892;5.740;2022-12-20T05:01:11;56345.44;;;-142.21;96.58
5053;BME280;2545;50.892;5.740;2022-12-20T05:03:37;56374.84;;;-142.21;95.50
5053;BME280;2545;50.892;5.740;2022-12-20T05:06:02;56349.38;;;-142.21;93.30
5053;BME280;2545;50.892;5.740;2022-12-20T05:08:28;56343.47;;;-142.21;92.01
5053;BME280;2545;50.892;5.740;2022-12-20T05:10:53;56333.69;;;-142.21;90.72
5053;BME280;2545;50.892;5.740;2022-12-20T05:13:19;56321.91;;;-142.21;88.85
5053;BME280;2545;50.892;5.740;2022-12-20T05:15:44;56323.88;;;-142.21;90.14
5053;BME280;2545;50.892;5.740;2022-12-20T05:18:09;56355.25;;;-142.21;89.39
5053;BME280;2545;50.892;5.740;2022-12-20T05:20:35;56316.03;;;-142.21;89.20
5053;BME280;2545;50.892;5.740;2022-12-20T05:23:01;56316.03;;;-142.21;89.55
5053;BME280;2545;50.892;5.740;2022-12-20T05:25:46;56367.00;;;-142.21;90.92
5053;BME280;2545;50.892;5.740;2022-12-20T05:28:31;56329.75;;;-142.21;90.39
5053;BME280;2545;50.892;5.740;2022-12-20T05:30:57;56335.63;;;-142.21;88.31
5053;BME280;2545;50.892;5.740;2022-12-20T05:33:23;56357.22;;;-142.21;88.09
5053;BME280;2545;50.892;5.740;2022-12-20T05:35:48;56357.22;;;-142.21;87.49
5053;BME280;2545;50.892;5.740;2022-12-20T05:38:13;56372.91;;;-142.21;87.11
5053;BME280;2545;50.892;5.740;2022-12-20T05:40:39;56312.09;;;-142.21;86.21
5053;BME280;2545;50.892;5.740;2022-12-20T05:43:05;56367.00;;;-142.21;87.41
5053;BME280;2545;50.892;5.740;2022-12-20T05:45:31;56317.97;;;-142.21;86.24
5053;BME280;2545;50.892;5.740;2022-12-20T05:47:57;56339.56;;;-142.21;85.71
5053;BME280;2545;50.892;5.740;2022-12-20T05:50:22;56341.53;;;-142.21;84.98
5053;BME280;2545;50.892;5.740;2022-12-20T05:52:48;56314.06;;;-142.21;82.98
5053;BME280;2545;50.892;5.740;2022-12-20T05:55:13;56359.16;;;-142.21;83.63
5053;BME280;2545;50.892;5.740;2022-12-20T05:57:38;56361.13;;;-142.21;84.84
5053;BME280;2545;50.892;5.740;2022-12-20T06:00:04;56351.31;;;-142.21;83.09
5053;BME280;2545;50.892;5.740;2022-12-20T06:02:30;56353.28;;;-142.21;81.87
5053;BME280;2545;50.892;5.740;2022-12-20T06:04:55;56345.44;;;-142.21;81.83
5053;BME280;2545;50.892;5.740;2022-12-20T06:07:22;56351.31;;;-142.21;82.08
5053;BME280;2545;50.892;5.740;2022-12-20T06:09:47;56339.56;;;-142.21;82.67
5053;BME280;2545;50.892;5.740;2022-12-20T06:12:12;56345.44;;;-142.21;81.12
5053;BME280;2545;50.892;5.740;2022-12-20T06:14:38;56331.72;;;-142.21;80.01
5053;BME280;2545;50.892;5.740;2022-12-20T06:17:03;56333.69;;;-142.21;79.36
5053;BME280;2545;50.892;5.740;2022-12-20T06:19:29;56317.97;;;-142.21;78.86
5053;BME280;2545;50.892;5.740;2022-12-20T06:21:54;56329.75;;;-142.21;79.96
5053;BME280;2545;50.892;5.740;2022-12-20T06:24:19;56359.16;;;-142.21;79.62
5053;BME280;2545;50.892;5.740;2022-12-20T06:26:45;56345.44;;;-142.21;78.71
5053;BME280;2545;50.892;5.740;2022-12-20T06:29:10;56317.97;;;-142.21;77.45
5053;BME280;2545;50.892;5.740;2022-12-20T06:31:39;56300.34;;;-142.21;77.74
5053;BME280;2545;50.892;5.740;2022-12-20T06:34:04;56339.56;;;-142.21;77.54
5053;BME280;2545;50.892;5.740;2022-12-20T06:36:30;56331.72;;;-142.21;76.72
5053;BME280;2545;50.892;5.740;2022-12-20T06:38:55;56310.13;;;-142.21;77.15
5053;BME280;2545;50.892;5.740;2022-12-20T06:41:20;56341.53;;;-142.21;76.52
5053;BME280;2545;50.892;5.740;2022-12-20T06:43:46;56351.31;;;-142.21;74.48
5053;BME280;2545;50.892;5.740;2022-12-20T06:46:11;56310.13;;;-142.21;74.13
5053;BME280;2545;50.892;5.740;2022-12-20T06:48:36;56363.09;;;-142.21;74.25
5053;BME280;2545;50.892;5.740;2022-12-20T06:51:02;56331.72;;;-142.21;73.88
5053;BME280;2545;50.892;5.740;2022-12-20T06:53:27;56335.63;;;-142.21;74.00
5053;BME280;2545;50.892;5.740;2022-12-20T06:55:53;56314.06;;;-142.21;73.04
5053;BME280;2545;50.892;5.740;2022-12-20T06:58:19;56343.47;;;-142.21;73.17
5053;BME280;2545;50.892;5.740;2022-12-20T07:00:45;56327.78;;;-142.21;72.92
5053;BME280;2545;50.892;5.740;2022-12-20T07:03:10;56343.47;;;-142.21;71.91
5053;BME280;2545;50.892;5.740;2022-12-20T07:05:35;56308.19;;;-142.21;72.05
5053;BME280;2545;50.892;5.740;2022-12-20T07:08:01;56310.13;;;-142.21;72.79
5053;BME280;2545;50.892;5.740;2022-12-20T07:10:29;56357.22;;;-142.21;72.97
5053;BME280;2545;50.892;5.740;2022-12-20T07:12:55;56367.00;;;-142.21;72.91
5053;BME280;2545;50.892;5.740;2022-12-20T07:15:20;56284.66;;;-142.21;72.01
5053;BME280;2545;50.892;5.740;2022-12-20T07:17:46;56331.72;;;-142.21;71.82
5053;BME280;2545;50.892;5.740;2022-12-20T07:20:12;56296.41;;;-142.21;71.75
5053;BME280;2545;50.892;5.740;2022-12-20T07:22:38;56357.22;;;-142.21;72.53
5053;BME280;2545;50.892;5.740;2022-12-20T07:25:03;56349.38;;;-142.21;72.36
5053;BME280;2545;50.892;5.740;2022-12-20T07:27:29;56317.97;;;-142.21;72.97
5053;BME280;2545;50.892;5.740;2022-12-20T07:29:55;56296.41;;;-142.21;73.81
5053;BME280;2545;50.892;5.740;2022-12-20T07:32:21;56314.06;;;-142.21;74.45
5053;BME280;2545;50.892;5.740;2022-12-20T07:34:46;56323.88;;;-142.21;73.68
5053;BME280;2545;50.892;5.740;2022-12-20T07:37:11;56319.94;;;-142.21;73.36
5053;BME280;2545;50.892;5.740;2022-12-20T07:39:37;56290.53;;;-142.21;73.54
5053;BME280;2545;50.892;5.740;2022-12-20T07:42:02;56329.75;;;-142.21;74.34
5053;BME280;2545;50.892;5.740;2022-12-20T07:44:28;56310.13;;;-142.21;74.66
5053;BME280;2545;50.892;5.740;2022-12-20T07:46:53;56357.22;;;-142.21;73.71
5053;BME280;2545;50.892;5.740;2022-12-20T07:49:19;56355.25;;;-142.21;73.33
5053;BME280;2545;50.892;5.740;2022-12-20T07:51:49;56325.84;;;-142.21;71.94
5053;BME280;2545;50.892;5.740;2022-12-20T07:54:22;56331.72;;;-142.21;70.45
5053;BME280;2545;50.892;5.740;2022-12-20T07:56:51;56327.78;;;-142.21;69.12
5053;BME280;2545;50.892;5.740;2022-12-20T07:59:26;56372.91;;;-142.21;68.61
5053;BME280;2545;50.892;5.740;2022-12-20T08:01:54;56292.50;;;-142.21;69.08
5053;BME280;2545;50.892;5.740;2022-12-20T08:04:23;56335.63;;;-142.21;69.47
5053;BME280;2545;50.892;5.740;2022-12-20T08:06:49;56319.94;;;-142.21;68.95
5053;BME280;2545;50.892;5.740;2022-12-20T08:09:16;56312.09;;;-142.21;69.40
5053;BME280;2545;50.892;5.740;2022-12-20T08:11:45;56316.03;;;-142.21;69.22
5053;BME280;2545;50.892;5.740;2022-12-20T08:14:11;56286.63;;;-142.21;68.24
5053;BME280;2545;50.892;5.740;2022-12-20T08:16:37;56343.47;;;-142.21;68.93
5053;BME280;2545;50.892;5.740;2022-12-20T08:19:03;56308.19;;;-142.21;68.40
5053;BME280;2545;50.892;5.740;2022-12-20T08:21:29;56306.22;;;-142.21;67.58
5053;BME280;2545;50.892;5.740;2022-12-20T08:23:54;56319.94;;;-142.21;67.64
5053;BME280;2545;50.892;5.740;2022-12-20T08:26:20;56323.88;;;-142.21;67.13
5053;BME280;2545;50.892;5.740;2022-12-20T08:28:46;56323.88;;;-142.21;67.59
5053;BME280;2545;50.892;5.740;2022-12-20T08:31:11;56323.88;;;-142.21;67.35
5053;BME280;2545;50.892;5.740;2022-12-20T08:33:37;56310.13;;;-142.21;67.32
5053;BME280;2545;50.892;5.740;2022-12-20T08:36:07;56321.91;;;-142.21;67.24
5053;BME280;2545;50.892;5.740;2022-12-20T08:38:33;56323.88;;;-142.21;67.12
5053;BME280;2545;50.892;5.740;2022-12-20T08:41:03;56312.09;;;-142.21;68.06
5053;BME280;2545;50.892;5.740;2022-12-20T08:43:30;56310.13;;;-142.21;68.62
5053;BME280;2545;50.892;5.740;2022-12-20T08:45:56;56316.03;;;-142.21;69.35
5053;BME280;2545;50.892;5.740;2022-12-20T08:48:21;56294.47;;;-142.21;70.75
5053;BME280;2545;50.892;5.740;2022-12-20T08:50:52;56331.72;;;-142.21;71.68
5053;BME280;2545;50.892;5.740;2022-12-20T08:53:17;56310.13;;;-142.21;71.99
5053;BME280;2545;50.892;5.740;2022-12-20T08:55:43;56325.84;;;-142.21;71.30
5053;BME280;2545;50.892;5.740;2022-12-20T08:58:08;56294.47;;;-142.21;71.66
5053;BME280;2545;50.892;5.740;2022-12-20T09:00:34;56331.72;;;-142.21;71.85
5053;BME280;2545;50.892;5.740;2022-12-20T09:03:00;56296.41;;;-142.21;72.33
5053;BME280;2545;50.892;5.740;2022-12-20T09:05:25;56335.63;;;-142.21;73.38
5053;BME280;2545;50.892;5.740;2022-12-20T09:07:51;56268.97;;;-142.21;72.74
5053;BME280;2545;50.892;5.740;2022-12-20T09:10:16;56300.34;;;-142.21;72.58
5053;BME280;2545;50.892;5.740;2022-12-20T09:12:41;56323.88;;;-142.21;72.31
5053;BME280;2545;50.892;5.740;2022-12-20T09:15:07;56312.09;;;-142.21;72.69
5053;BME280;2545;50.892;5.740;2022-12-20T09:17:33;56343.47;;;-142.21;73.51
5053;BME280;2545;50.892;5.740;2022-12-20T09:19:58;56351.31;;;-142.21;73.82
5053;BME280;2545;50.892;5.740;2022-12-20T09:22:23;56351.31;;;-142.21;74.29
5053;BME280;2545;50.892;5.740;2022-12-20T09:24:49;56308.19;;;-142.21;75.18
5053;BME280;2545;50.892;5.740;2022-12-20T09:27:14;56361.13;;;-142.21;74.89
5053;BME280;2545;50.892;5.740;2022-12-20T09:29:40;56337.59;;;-142.21;74.91
5053;BME280;2545;50.892;5.740;2022-12-20T09:32:05;56327.78;;;-142.21;73.79
5053;BME280;2545;50.892;5.740;2022-12-20T09:34:31;56368.97;;;-142.21;73.17
5053;BME280;2545;50.892;5.740;2022-12-20T09:36:56;56306.22;;;-142.21;73.72
5053;BME280;2545;50.892;5.740;2022-12-20T09:39:22;56286.63;;;-142.21;73.01
5053;BME280;2545;50.892;5.740;2022-12-20T09:41:47;56365.06;;;-142.21;73.91
5053;BME280;2545;50.892;5.740;2022-12-20T09:44:18;56310.13;;;-142.21;73.58
5053;BME280;2545;50.892;5.740;2022-12-20T09:46:53;56339.56;;;-142.21;73.91
5053;BME280;2545;50.892;5.740;2022-12-20T09:49:21;56304.25;;;-142.21;73.46
5053;BME280;2545;50.892;5.740;2022-12-20T09:52:38;56319.94;;;-142.21;73.62
5053;BME280;2545;50.892;5.740;2022-12-20T10:00:17;56278.78;;;-142.21;73.57
5053;BME280;2545;50.892;5.740;2022-12-20T10:02:43;56288.56;;;-142.21;74.55
5053;BME280;2545;50.892;5.740;2022-12-20T10:05:17;56321.91;;;-142.21;75.19
5053;BME280;2545;50.892;5.740;2022-12-20T10:07:54;56329.75;;;-142.21;77.97
5053;BME280;2545;50.892;5.740;2022-12-20T10:15:53;56261.13;;;-142.21;78.68
5053;BME280;2545;50.892;5.740;2022-12-20T10:26:14;56367.00;;;-142.21;75.36
5053;BME280;2545;50.892;5.740;2022-12-20T10:28:39;56323.88;;;-142.21;74.31
5053;BME280;2545;50.892;5.740;2022-12-20T10:31:12;56333.69;;;-142.21;74.40
5053;BME280;2545;50.892;5.740;2022-12-20T10:33:40;56329.75;;;-142.21;74.93
5053;BME280;2545;50.892;5.740;2022-12-20T10:38:54;56316.03;;;-142.21;72.70
5053;BME280;2545;50.892;5.740;2022-12-20T10:41:28;56353.28;;;-142.21;72.99
5053;BME280;2545;50.892;5.740;2022-12-20T10:43:59;56288.56;;;-142.21;72.74
5053;BME280;2545;50.892;5.740;2022-12-20T10:46:38;56308.19;;;-142.21;72.38
5053;BME280;2545;50.892;5.740;2022-12-20T10:49:29;56317.97;;;-142.21;72.47
5053;BME280;2545;50.892;5.740;2022-12-20T10:51:58;56304.25;;;-142.21;72.77
5053;BME280;2545;50.892;5.740;2022-12-20T10:56:59;56302.28;;;-142.21;71.84
5053;BME280;2545;50.892;5.740;2022-12-20T10:59:33;56296.41;;;-142.21;71.39
5053;BME280;2545;50.892;5.740;2022-12-20T11:02:19;56337.59;;;-142.21;71.36
5053;BME280;2545;50.892;5.740;2022-12-20T11:07:29;56333.69;;;-142.21;71.86
5053;BME280;2545;50.892;5.740;2022-12-20T11:10:00;56337.59;;;-142.21;72.08
5053;BME280;2545;50.892;5.740;2022-12-20T11:12:27;56306.22;;;-142.21;71.89
5053;BME280;2545;50.892;5.740;2022-12-20T11:15:19;56302.28;;;-142.21;72.38
5053;BME280;2545;50.892;5.740;2022-12-20T11:17:52;56337.59;;;-142.21;72.62
5053;BME280;2545;50.892;5.740;2022-12-20T11:20:41;56300.34;;;-142.21;72.76
5053;BME280;2545;50.892;5.740;2022-12-20T11:23:38;56337.59;;;-142.21;74.13
5053;BME280;2545;50.892;5.740;2022-12-20T11:41:07;56282.69;;;-142.21;90.15
5053;BME280;2545;50.892;5.740;2022-12-20T11:44:01;56302.28;;;-142.21;93.55
5053;BME280;2545;50.892;5.740;2022-12-20T11:46:43;56355.25;;;-142.21;98.48
5053;BME280;2545;50.892;5.740;2022-12-20T11:49:51;56333.69;;;-142.21;100.00
5053;BME280;2545;50.892;5.740;2022-12-20T11:52:34;56284.66;;;-142.21;100.00
5053;BME280;2545;50.892;5.740;2022-12-20T11:55:08;56282.69;;;-142.21;100.00
5053;BME280;2545;50.892;5.740;2022-12-20T11:57:47;56319.94;;;-142.21;100.00
5053;BME280;2545;50.892;5.740;2022-12-20T12:00:14;56317.97;;;-142.21;100.00
5053;BME280;2545;50.892;5.740;2022-12-20T12:02:50;56337.59;;;-142.21;100.00
5053;BME280;2545;50.892;5.740;2022-12-20T12:05:39;56331.72;;;-142.21;100.00
5053;BME280;2545;50.892;5.740;2022-12-20T12:08:11;56304.25;;;-142.21;100.00
5053;BME280;2545;50.892;5.740;2022-12-20T12:10:41;56339.56;;;-142.21;100.00
5053;BME280;2545;50.892;5.740;2022-12-20T12:13:39;56314.06;;;-142.21;100.00
5053;BME280;2545;50.892;5.740;2022-12-20T12:16:09;56327.78;;;-142.21;100.00
5053;BME280;2545;50.892;5.740;2022-12-20T12:18:36;56363.09;;;-142.21;100.00
5053;BME280;2545;50.892;5.740;2022-12-20T12:26:28;56351.31;;;-142.21;100.00
5053;BME280;2545;50.892;5.740;2022-12-20T12:29:19;56335.63;;;-142.21;100.00
5053;BME280;2545;50.892;5.740;2022-12-20T12:31:53;56331.72;;;-142.21;100.00
5053;BME280;2545;50.892;5.740;2022-12-20T12:50:39;56335.63;;;-142.21;100.00
5053;BME280;2545;50.892;5.740;2022-12-20T12:53:23;56335.63;;;-142.21;100.00
5053;BME280;2545;50.892;5.740;2022-12-20T12:55:52;56335.63;;;-142.21;100.00
5053;BME280;2545;50.892;5.740;2022-12-20T13:01:08;56367.00;;;-142.21;100.00
5053;BME280;2545;50.892;5.740;2022-12-20T13:11:47;56351.31;;;-142.21;100.00
5053;BME280;2545;50.892;5.740;2022-12-20T13:19:49;56353.28;;;-142.21;100.00
5053;BME280;2545;50.892;5.740;2022-12-20T13:24:51;56321.91;;;-142.21;100.00
5053;BME280;2545;50.892;5.740;2022-12-20T13:30:23;56382.69;;;-142.21;100.00
5053;BME280;2545;50.892;5.740;2022-12-20T13:32:56;56363.09;;;-142.21;100.00
5053;BME280;2545;50.892;5.740;2022-12-20T13:40:55;56349.38;;;-142.21;100.00
5053;BME280;2545;50.892;5.740;2022-12-20T13:48:45;56357.22;;;-142.21;100.00
5053;BME280;2545;50.892;5.740;2022-12-20T13:51:16;56312.09;;;-142.21;100.00
5053;BME280;2545;50.892;5.740;2022-12-20T13:56:46;56355.25;;;-142.21;100.00
5053;BME280;2545;50.892;5.740;2022-12-20T13:59:19;56390.53;;;-142.21;100.00
5053;BME280;2545;50.892;5.740;2022-12-20T14:01:51;56386.63;;;-142.21;100.00
5053;BME280;2545;50.892;5.740;2022-12-20T14:04:18;56304.25;;;-142.21;100.00
5053;BME280;2545;50.892;5.740;2022-12-20T14:06:49;56317.97;;;-142.21;100.00
5053;BME280;2545;50.892;5.740;2022-12-20T14:12:14;56333.69;;;-142.21;100.00
5053;BME280;2545;50.892;5.740;2022-12-20T14:14:45;56317.97;;;-142.21;100.00
5053;BME280;2545;50.892;5.740;2022-12-20T14:17:30;56349.38;;;-142.21;100.00
5053;BME280;2545;50.892;5.740;2022-12-20T14:20:16;56363.09;;;-142.21;100.00
5053;BME280;2545;50.892;5.740;2022-12-20T14:25:22;56374.84;;;-142.21;100.00
5053;BME280;2545;50.892;5.740;2022-12-20T14:27:51;56367.00;;;-142.21;100.00
5053;BME280;2545;50.892;5.740;2022-12-20T14:30:28;56314.06;;;-142.21;100.00
5053;BME280;2545;50.892;5.740;2022-12-20T14:32:55;56357.22;;;-142.21;100.00
5053;BME280;2545;50.892;5.740;2022-12-20T14:35:21;56343.47;;;-142.21;100.00
5053;BME280;2545;50.892;5.740;2022-12-20T14:38:00;56347.41;;;-142.21;100.00
5053;BME280;2545;50.892;5.740;2022-12-20T14:40:28;56367.00;;;-142.21;100.00
5053;BME280;2545;50.892;5.740;2022-12-20T14:42:54;56345.44;;;-142.21;100.00
5053;BME280;2545;50.892;5.740;2022-12-20T14:45:26;56317.97;;;-142.21;100.00
5053;BME280;2545;50.892;5.740;2022-12-20T14:48:05;56345.44;;;-142.21;100.00
5053;BME280;2545;50.892;5.740;2022-12-20T14:50:35;56343.47;;;-142.21;100.00
5053;BME280;2545;50.892;5.740;2022-12-20T14:53:01;56376.81;;;-142.21;100.00
5053;BME280;2545;50.892;5.740;2022-12-20T14:55:36;56329.75;;;-142.21;100.00
5053;BME280;2545;50.892;5.740;2022-12-20T14:58:23;56370.94;;;-142.21;100.00
5053;BME280;2545;50.892;5.740;2022-12-20T15:01:19;56367.00;;;-142.21;100.00
5053;BME280;2545;50.892;5.740;2022-12-20T15:03:53;56343.47;;;-142.21;100.00